Time;durP1;ratioP1;P1;durP2;ratioP2;P2;SDS_P1;SDS_P2;PMS_P1;PMS_P2;Temp;Humidity;BMP_temperature;BMP_pressure;BME280_temperature;BME280_humidity;BME280_pressure;Samples;Min_cycle;Max_cycle;Signal;HPM_P1;HPM_P2
2021/05/17 00:01:07;;;;;;;2.50;1.85;;;15.50;61.80;;;;;;4751902;30;20123;-85
2021/05/17 00:03:35;;;;;;;2.10;1.70;;;15.50;62.50;;;;;;4751499;30;20482;-85
2021/05/17 00:06:01;;;;;;;2.10;1.80;;;15.50;61.90;;;;;;4736856;30;20079;-85
2021/05/17 00:08:27;;;;;;;2.03;1.70;;;15.50;61.90;;;;;;4752302;30;20047;-84
2021/05/17 00:10:53;;;;;;;2.15;1.50;;;15.40;61.90;;;;;;4752333;30;20020;-85
2021/05/17 00:13:19;;;;;;;1.92;1.50;;;15.40;61.90;;;;;;4723105;30;20486;-85
2021/05/17 00:15:44;;;;;;;1.95;1.60;;;15.40;62.00;;;;;;4712306;30;20056;-85
2021/05/17 00:18:11;;;;;;;2.13;1.80;;;15.40;62.00;;;;;;4752322;30;20043;-86
2021/05/17 00:20:37;;;;;;;2.25;1.42;;;15.40;62.10;;;;;;4722990;30;20407;-85
2021/05/17 00:23:03;;;;;;;2.10;1.70;;;15.40;62.00;;;;;;4752124;30;20028;-85
2021/05/17 00:25:29;;;;;;;1.80;1.40;;;15.40;62.10;;;;;;4766496;30;20371;-86
2021/05/17 00:27:57;;;;;;;2.45;1.80;;;15.40;62.10;;;;;;4756651;30;20036;-86
2021/05/17 00:30:26;;;;;;;1.35;1.25;;;15.40;62.20;;;;;;4751966;30;20040;-85
2021/05/17 00:32:55;;;;;;;1.65;1.52;;;15.40;62.20;;;;;;4749512;30;20035;-86
2021/05/17 00:35:22;;;;;;;2.80;1.80;;;15.40;62.20;;;;;;4766816;30;20047;-86
2021/05/17 00:37:49;;;;;;;1.63;1.48;;;15.40;62.20;;;;;;4736900;30;20032;-85
2021/05/17 00:40:16;;;;;;;1.95;1.67;;;15.40;62.30;;;;;;4753096;30;20045;-85
2021/05/17 00:42:43;;;;;;;1.95;1.63;;;15.30;62.30;;;;;;4736832;30;20044;-86
2021/05/17 00:45:12;;;;;;;1.85;1.63;;;15.30;62.40;;;;;;4722698;30;20116;-86
2021/05/17 00:47:40;;;;;;;1.70;1.45;;;15.30;62.40;;;;;;4751845;30;20474;-86
2021/05/17 00:50:08;;;;;;;1.70;1.52;;;15.30;62.40;;;;;;4755905;30;20036;-85
2021/05/17 00:52:35;;;;;;;2.05;1.80;;;15.30;62.50;;;;;;4751228;30;20040;-86
2021/05/17 00:55:02;;;;;;;2.08;1.60;;;15.30;62.50;;;;;;4751512;30;20047;-85
2021/05/17 00:57:27;;;;;;;2.17;1.40;;;15.30;62.50;;;;;;4721671;30;20058;-85
2021/05/17 00:59:53;;;;;;;1.42;1.33;;;15.20;62.40;;;;;;4751887;30;20037;-85
2021/05/17 01:02:19;;;;;;;1.90;1.63;;;15.20;62.50;;;;;;4707862;30;20021;-86
2021/05/17 01:05:00;;;;;;;1.60;1.50;;;15.20;62.50;;;;;;4753544;30;20135;-85
2021/05/17 01:07:29;;;;;;;1.55;1.45;;;15.20;62.50;;;;;;4737036;30;20430;-86
2021/05/17 01:09:57;;;;;;;1.75;1.55;;;15.20;62.50;;;;;;4745766;30;20028;-86
2021/05/17 01:12:24;;;;;;;1.50;1.35;;;15.20;62.60;;;;;;4740278;30;20066;-85
2021/05/17 01:15:00;;;;;;;1.70;1.60;;;15.10;62.60;;;;;;4736468;30;20159;-86
2021/05/17 01:17:31;;;;;;;2.00;1.60;;;15.20;62.70;;;;;;4751026;30;20043;-86
2021/05/17 01:20:02;;;;;;;1.65;1.55;;;15.10;62.60;;;;;;4723194;30;20044;-86
2021/05/17 01:22:48;;;;;;;1.67;1.55;;;15.10;62.60;;;;;;4751407;30;20033;-87
2021/05/17 01:25:18;;;;;;;1.67;1.48;;;15.10;62.70;;;;;;4751732;30;20494;-86
2021/05/17 01:27:47;;;;;;;2.45;1.60;;;15.10;62.70;;;;;;4751471;30;20123;-86
2021/05/17 01:30:14;;;;;;;1.75;1.55;;;15.10;62.70;;;;;;4725422;30;20028;-85
2021/05/17 01:32:42;;;;;;;1.88;1.50;;;15.10;62.80;;;;;;4751249;30;20402;-86
2021/05/17 01:35:10;;;;;;;1.73;1.60;;;15.10;62.80;;;;;;4751260;30;20035;-86
2021/05/17 01:37:38;;;;;;;2.30;1.70;;;15.10;62.80;;;;;;4751245;30;20044;-86
2021/05/17 01:40:08;;;;;;;2.25;1.60;;;15.10;62.90;;;;;;4751317;30;20040;-85
2021/05/17 01:42:42;;;;;;;1.77;1.50;;;15.00;62.80;;;;;;4754283;30;20035;-86
2021/05/17 01:45:10;;;;;;;1.80;1.70;;;15.00;62.90;;;;;;4752382;30;20048;-85
2021/05/17 01:47:46;;;;;;;2.05;1.60;;;15.00;62.90;;;;;;4737693;30;20032;-86
2021/05/17 01:50:15;;;;;;;2.03;1.60;;;15.00;62.90;;;;;;4736414;30;20051;-85
2021/05/17 01:52:41;;;;;;;1.98;1.70;;;15.00;63.00;;;;;;4736250;30;20486;-86
2021/05/17 01:55:11;;;;;;;1.55;1.45;;;15.00;63.00;;;;;;4750325;30;20036;-85
2021/05/17 01:57:38;;;;;;;1.55;1.40;;;15.00;63.00;;;;;;4750852;30;20035;-86
2021/05/17 02:00:08;;;;;;;1.70;1.50;;;15.00;63.00;;;;;;4736821;30;20127;-85
2021/05/17 02:02:39;;;;;;;2.38;1.58;;;14.90;63.00;;;;;;4732800;30;20127;-86
2021/05/17 02:05:08;;;;;;;1.42;1.30;;;14.90;63.00;;;;;;4725560;30;20043;-86
2021/05/17 02:07:35;;;;;;;1.42;1.33;;;14.90;63.00;;;;;;4738654;30;20028;-85
2021/05/17 02:10:05;;;;;;;2.08;1.55;;;14.90;63.00;;;;;;4739801;30;20557;-86
2021/05/17 02:12:33;;;;;;;2.25;1.55;;;14.90;63.10;;;;;;4739686;30;20043;-85
2021/05/17 02:15:08;;;;;;;1.50;1.40;;;14.90;63.10;;;;;;4740983;30;20147;-86
2021/05/17 02:17:37;;;;;;;1.60;1.50;;;14.90;63.10;;;;;;4767723;30;20094;-86
2021/05/17 02:20:04;;;;;;;2.42;1.45;;;14.90;63.10;;;;;;4724901;30;20055;-86
2021/05/17 02:22:45;;;;;;;1.75;1.33;;;14.90;63.20;;;;;;4753888;30;20127;-86
2021/05/17 02:25:19;;;;;;;2.15;1.50;;;14.80;63.20;;;;;;4741530;30;20139;-86
2021/05/17 02:27:45;;;;;;;1.40;1.30;;;14.80;63.10;;;;;;4741645;30;20551;-85
2021/05/17 02:30:13;;;;;;;1.60;1.30;;;14.80;63.20;;;;;;4714111;30;20115;-86
2021/05/17 02:32:40;;;;;;;2.05;1.30;;;14.80;63.20;;;;;;4750204;30;20127;-86
2021/05/17 02:35:09;;;;;;;1.85;1.52;;;14.80;63.20;;;;;;4733931;30;20076;-86
2021/05/17 02:37:35;;;;;;;1.40;1.30;;;14.80;63.20;;;;;;4754313;30;20105;-85
2021/05/17 02:40:04;;;;;;;1.80;1.40;;;14.80;63.30;;;;;;4739410;30;20043;-86
2021/05/17 02:42:34;;;;;;;2.08;1.60;;;14.80;63.30;;;;;;4725093;30;20036;-85
2021/05/17 02:45:07;;;;;;;1.48;1.38;;;14.80;63.30;;;;;;4738726;30;20049;-85
2021/05/17 02:47:36;;;;;;;1.40;1.30;;;14.80;63.40;;;;;;4710508;30;20569;-85
2021/05/17 02:50:08;;;;;;;1.65;1.50;;;14.80;63.30;;;;;;4722763;30;20041;-86
2021/05/17 02:52:35;;;;;;;1.52;1.25;;;14.70;63.30;;;;;;4738588;30;20040;-86
2021/05/17 02:55:10;;;;;;;1.40;1.30;;;14.70;63.30;;;;;;4728617;30;20255;-86
2021/05/17 02:57:43;;;;;;;1.50;1.40;;;14.70;63.40;;;;;;4754394;30;20039;-86
2021/05/17 03:00:14;;;;;;;1.67;1.40;;;14.70;63.30;;;;;;4753317;30;20123;-86
2021/05/17 03:02:51;;;;;;;1.25;1.15;;;14.70;63.40;;;;;;4738298;30;20039;-86
2021/05/17 03:05:18;;;;;;;1.30;1.20;;;14.70;63.40;;;;;;4753160;30;20040;-86
2021/05/17 03:07:51;;;;;;;1.40;1.30;;;14.70;63.40;;;;;;4738405;30;20056;-86
2021/05/17 03:10:17;;;;;;;1.60;1.45;;;14.70;63.40;;;;;;4738552;30;20033;-86
2021/05/17 03:12:44;;;;;;;1.40;1.30;;;14.70;63.40;;;;;;4738785;30;20024;-85
2021/05/17 03:15:12;;;;;;;1.40;1.30;;;14.70;63.50;;;;;;4709071;30;20056;-85
2021/05/17 03:17:39;;;;;;;1.75;1.60;;;14.70;63.40;;;;;;4761656;30;20502;-87
2021/05/17 03:20:06;;;;;;;1.48;1.27;;;14.60;63.40;;;;;;4737937;30;20033;-86
2021/05/17 03:22:33;;;;;;;1.92;1.45;;;14.60;63.40;;;;;;4738491;30;20071;-86
2021/05/17 03:25:00;;;;;;;2.13;1.40;;;14.60;63.40;;;;;;4742511;30;20040;-85
2021/05/17 03:27:28;;;;;;;1.50;1.38;;;14.60;63.50;;;;;;4746241;30;20036;-86
2021/05/17 03:29:55;;;;;;;1.90;1.40;;;14.60;63.50;;;;;;4724236;30;20056;-86
2021/05/17 03:32:24;;;;;;;1.45;1.30;;;14.60;63.50;;;;;;4753330;30;20039;-86
2021/05/17 03:34:51;;;;;;;2.70;1.55;;;14.60;63.50;;;;;;4752824;30;20059;-86
2021/05/17 03:37:17;;;;;;;1.92;1.40;;;14.60;63.50;;;;;;4756730;30;20032;-86
2021/05/17 03:39:45;;;;;;;1.40;1.30;;;14.60;63.60;;;;;;4753235;30;20039;-86
2021/05/17 03:42:11;;;;;;;1.65;1.50;;;14.60;63.60;;;;;;4751492;30;20056;-85
2021/05/17 03:44:37;;;;;;;1.42;1.33;;;14.50;63.50;;;;;;4752669;30;20032;-85
2021/05/17 03:47:03;;;;;;;1.35;1.25;;;14.60;63.60;;;;;;4718414;30;20042;-85
2021/05/17 03:49:29;;;;;;;2.38;1.50;;;14.50;63.50;;;;;;4723769;30;20047;-86
2021/05/17 03:51:55;;;;;;;1.65;1.48;;;14.50;63.60;;;;;;4750124;30;20040;-86
2021/05/17 03:54:20;;;;;;;1.73;1.48;;;14.50;63.60;;;;;;4752492;30;20044;-86
2021/05/17 03:56:46;;;;;;;1.70;1.40;;;14.50;63.60;;;;;;4723388;30;20098;-86
2021/05/17 03:59:15;;;;;;;1.55;1.45;;;14.60;63.60;;;;;;4737578;30;20496;-86
2021/05/17 04:01:41;;;;;;;1.40;1.25;;;14.50;64.20;;;;;;4738000;30;20063;-86
2021/05/17 04:04:08;;;;;;;1.55;1.40;;;14.50;63.60;;;;;;4752295;30;20442;-86
2021/05/17 04:14:34;;;;;;;2.15;1.63;;;14.50;63.60;;;;;;4752159;30;20098;-86
2021/05/17 04:17:00;;;;;;;2.10;1.50;;;14.50;63.60;;;;;;4737566;30;20044;-87
2021/05/17 04:19:27;;;;;;;2.35;1.60;;;14.50;63.70;;;;;;4752601;30;20123;-86
2021/05/17 04:21:53;;;;;;;2.65;1.60;;;14.50;63.70;;;;;;4723537;30;20059;-86
2021/05/17 04:24:19;;;;;;;1.83;1.48;;;14.50;63.70;;;;;;4752024;30;20108;-86
2021/05/17 04:26:45;;;;;;;1.50;1.40;;;14.50;63.70;;;;;;4752416;30;20122;-86
2021/05/17 04:29:11;;;;;;;2.20;1.42;;;14.50;63.80;;;;;;4737368;30;20828;-86
2021/05/17 04:31:37;;;;;;;2.72;1.85;;;14.50;63.80;;;;;;4723146;30;20028;-87
2021/05/17 04:34:03;;;;;;;1.58;1.45;;;14.50;63.80;;;;;;4736745;30;20051;-86
2021/05/17 04:36:31;;;;;;;1.60;1.50;;;14.50;63.80;;;;;;4737405;30;20127;-86
2021/05/17 04:38:58;;;;;;;1.90;1.52;;;14.50;63.80;;;;;;4738385;30;20036;-86
2021/05/17 04:41:24;;;;;;;1.77;1.48;;;14.50;63.80;;;;;;4722877;30;20048;-86
2021/05/17 04:43:49;;;;;;;3.17;1.40;;;14.50;63.80;;;;;;4722523;30;20036;-85
2021/05/17 04:46:16;;;;;;;2.22;1.48;;;14.50;63.80;;;;;;4736825;30;20052;-82
2021/05/17 04:48:49;;;;;;;2.28;1.50;;;14.50;63.80;;;;;;4735776;30;20029;-86
2021/05/17 04:51:20;;;;;;;1.48;1.35;;;14.50;63.80;;;;;;4748469;30;20089;-86
2021/05/17 04:53:47;;;;;;;1.65;1.50;;;14.40;63.80;;;;;;4751051;30;20071;-89
2021/05/17 04:56:13;;;;;;;2.38;1.55;;;14.50;63.90;;;;;;4752266;30;20036;-89
2021/05/17 04:58:39;;;;;;;1.65;1.33;;;14.50;63.90;;;;;;4737155;30;20036;-86
2021/05/17 05:01:05;;;;;;;1.60;1.35;;;14.40;63.80;;;;;;4753038;30;20032;-88
2021/05/17 05:03:31;;;;;;;1.70;1.30;;;14.50;63.90;;;;;;4762127;30;20128;-88
2021/05/17 05:05:58;;;;;;;1.90;1.50;;;14.50;63.90;;;;;;4736164;30;20170;-92
2021/05/17 05:08:24;;;;;;;1.98;1.50;;;14.50;63.90;;;;;;4738480;30;20044;-89
2021/05/17 05:10:50;;;;;;;2.53;1.45;;;14.50;63.90;;;;;;4741157;30;20036;-88
2021/05/17 05:13:16;;;;;;;1.77;1.40;;;14.50;63.90;;;;;;4748375;30;20040;-88
2021/05/17 05:15:42;;;;;;;2.40;1.50;;;14.50;63.90;;;;;;4731596;30;20055;-91
2021/05/17 05:18:08;;;;;;;1.60;1.30;;;14.50;63.90;;;;;;4721742;30;20036;-90
2021/05/17 05:20:34;;;;;;;1.60;1.50;;;14.50;63.90;;;;;;4717993;30;20079;-90
2021/05/17 05:23:01;;;;;;;1.48;1.35;;;14.50;63.90;;;;;;4751355;30;20039;-90
2021/05/17 05:26:07;;;;;;;1.95;1.60;;;14.50;63.90;;;;;;4741973;30;20549;-89
2021/05/17 05:33:34;;;;;;;1.75;1.45;;;14.50;63.90;;;;;;4751553;30;20048;-91
2021/05/17 05:36:00;;;;;;;1.83;1.52;;;14.40;63.90;;;;;;4736397;30;20064;-89
2021/05/17 05:38:25;;;;;;;1.73;1.30;;;14.50;64.00;;;;;;4754675;30;20044;-87
2021/05/17 05:40:51;;;;;;;1.73;1.27;;;14.50;64.00;;;;;;4740575;30;20040;-88
2021/05/17 05:43:18;;;;;;;2.53;1.50;;;14.50;64.00;;;;;;4740371;30;20040;-91
2021/05/17 05:45:47;;;;;;;1.40;1.30;;;14.50;64.00;;;;;;4740653;30;20064;-88
2021/05/17 05:48:14;;;;;;;2.75;1.50;;;14.50;64.00;;;;;;4755014;30;20474;-89
2021/05/17 05:50:40;;;;;;;1.25;1.15;;;14.50;64.00;;;;;;4754382;30;20043;-89
2021/05/17 05:53:06;;;;;;;1.98;1.50;;;14.50;64.00;;;;;;4725685;30;20036;-89
2021/05/17 05:55:33;;;;;;;1.27;1.17;;;14.50;64.00;;;;;;4727909;30;20041;-85
2021/05/17 05:57:59;;;;;;;1.90;1.35;;;14.50;64.00;;;;;;4752885;30;20052;-91
2021/05/17 06:00:31;;;;;;;1.30;1.20;;;14.50;64.10;;;;;;4753459;30;20479;-88
2021/05/17 06:02:58;;;;;;;1.65;1.40;;;14.50;64.10;;;;;;4737733;30;20562;-88
2021/05/17 06:05:23;;;;;;;1.52;1.20;;;14.50;64.10;;;;;;4755494;30;20048;-89
2021/05/17 06:07:50;;;;;;;2.20;1.40;;;14.50;64.00;;;;;;4766178;30;20089;-90
2021/05/17 06:10:16;;;;;;;1.75;1.30;;;14.50;64.10;;;;;;4745448;30;20030;-90
2021/05/17 06:12:45;;;;;;;1.48;1.30;;;14.50;64.00;;;;;;4763388;30;20489;-89
2021/05/17 06:15:11;;;;;;;1.55;1.23;;;14.50;64.00;;;;;;4756665;30;21023;-89
2021/05/17 06:17:37;;;;;;;1.45;1.35;;;14.50;64.10;;;;;;4749694;30;20040;-88
2021/05/17 06:20:05;;;;;;;2.15;1.40;;;14.50;64.00;;;;;;4739864;30;20062;-87
2021/05/17 06:22:31;;;;;;;2.00;1.50;;;14.50;64.00;;;;;;4754844;30;20054;-89
2021/05/17 06:24:59;;;;;;;2.08;1.30;;;14.50;64.00;;;;;;4720924;30;20436;-90
2021/05/17 06:27:26;;;;;;;1.50;1.40;;;14.50;64.00;;;;;;4739859;30;20040;-89
2021/05/17 06:29:54;;;;;;;2.03;1.42;;;14.50;64.00;;;;;;4710766;30;20039;-88
2021/05/17 06:32:22;;;;;;;1.70;1.38;;;14.50;64.00;;;;;;4740051;30;20112;-87
2021/05/17 06:34:49;;;;;;;1.75;1.30;;;14.50;64.10;;;;;;4739726;30;20487;-86
2021/05/17 06:37:15;;;;;;;1.33;1.20;;;14.60;64.10;;;;;;4739539;30;20037;-89
2021/05/17 06:39:41;;;;;;;1.27;1.02;;;14.50;64.00;;;;;;4739227;30;20044;-89
2021/05/17 06:42:08;;;;;;;1.20;1.10;;;14.50;64.10;;;;;;4722723;30;20490;-94
2021/05/17 06:44:34;;;;;;;1.45;1.35;;;14.50;64.10;;;;;;4721979;30;20032;-93
2021/05/17 06:47:00;;;;;;;1.38;1.27;;;14.50;64.10;;;;;;4752894;30;20466;-94
2021/05/17 06:49:29;;;;;;;1.85;1.30;;;14.50;64.10;;;;;;4740645;30;20045;-93
2021/05/17 06:52:03;;;;;;;1.67;1.40;;;14.60;64.20;;;;;;4750323;30;20032;-93
2021/05/17 06:54:30;;;;;;;1.58;1.35;;;14.60;64.20;;;;;;4752413;30;20028;-88
2021/05/17 06:57:11;;;;;;;2.50;1.50;;;14.60;64.10;;;;;;4722106;30;20036;-90
2021/05/17 06:59:45;;;;;;;1.30;1.20;;;14.60;64.10;;;;;;4751564;30;20028;-90
2021/05/17 07:02:22;;;;;;;1.67;1.40;;;14.60;64.10;;;;;;4724170;30;20575;-91
2021/05/17 07:04:50;;;;;;;1.10;1.10;;;14.60;64.20;;;;;;4759111;30;20040;-93
2021/05/17 07:07:23;;;;;;;1.42;1.33;;;14.60;64.10;;;;;;4753122;30;20471;-91
2021/05/17 07:12:33;;;;;;;1.65;1.40;;;14.70;64.20;;;;;;4753851;30;20058;-92
2021/05/17 07:15:05;;;;;;;2.22;1.15;;;14.70;64.10;;;;;;4738724;30;20124;-93
2021/05/17 07:17:31;;;;;;;1.65;1.40;;;14.60;64.10;;;;;;4753849;30;20040;-91
2021/05/17 07:19:58;;;;;;;1.50;1.33;;;14.70;64.20;;;;;;4760491;30;20161;-91
2021/05/17 07:25:09;;;;;;;1.65;1.20;;;14.70;64.20;;;;;;4768123;30;20055;-92
2021/05/17 07:27:35;;;;;;;1.42;1.10;;;14.70;64.10;;;;;;4753477;30;20032;-92
2021/05/17 07:30:02;;;;;;;1.38;1.27;;;14.80;64.20;;;;;;4753459;30;20493;-91
2021/05/17 07:32:27;;;;;;;2.28;1.30;;;14.80;64.20;;;;;;4753868;30;20093;-93
2021/05/17 07:34:53;;;;;;;2.10;1.50;;;14.80;64.20;;;;;;4745156;30;20127;-92
2021/05/17 07:37:20;;;;;;;1.55;1.40;;;14.80;64.20;;;;;;4738211;30;20036;-92
2021/05/17 07:39:46;;;;;;;1.50;1.40;;;14.80;64.20;;;;;;4750758;30;20495;-94
2021/05/17 07:42:12;;;;;;;1.30;1.10;;;14.80;64.10;;;;;;4751547;30;20059;-93
2021/05/17 07:44:38;;;;;;;1.45;1.27;;;14.80;64.10;;;;;;4753042;30;20033;-92
2021/05/17 07:47:04;;;;;;;1.40;1.30;;;14.80;64.10;;;;;;4754269;30;20028;-93
2021/05/17 07:49:43;;;;;;;1.83;1.10;;;14.90;64.20;;;;;;4724433;30;20068;-93
2021/05/17 07:52:10;;;;;;;1.25;1.13;;;14.90;64.10;;;;;;4736987;30;20386;-93
2021/05/17 07:54:37;;;;;;;1.38;1.17;;;14.90;64.10;;;;;;4763866;30;20816;-93
2021/05/17 07:57:05;;;;;;;1.27;1.10;;;14.90;64.10;;;;;;4753363;30;20039;-91
2021/05/17 07:59:32;;;;;;;1.20;1.15;;;15.00;64.20;;;;;;4738109;30;20028;-95
2021/05/17 08:01:58;;;;;;;1.45;1.20;;;15.00;64.20;;;;;;4738013;30;20040;-95
2021/05/17 08:04:24;;;;;;;1.23;1.13;;;15.00;64.10;;;;;;4753270;30;20035;-95
2021/05/17 08:06:54;;;;;;;1.08;1.02;;;15.00;64.10;;;;;;4739167;30;20055;-95
2021/05/17 08:09:20;;;;;;;1.60;1.10;;;15.00;64.10;;;;;;4738666;30;20040;-96
2021/05/17 08:11:46;;;;;;;1.25;1.05;;;15.00;64.10;;;;;;4746571;30;20484;-96
2021/05/17 08:14:13;;;;;;;1.63;1.30;;;15.00;64.00;;;;;;4742310;30;20066;-96
2021/05/17 08:16:39;;;;;;;1.35;1.25;;;15.10;64.10;;;;;;4758473;30;20100;-96
2021/05/17 08:19:08;;;;;;;1.23;1.13;;;15.10;64.10;;;;;;4770219;30;20038;-96
2021/05/17 08:21:39;;;;;;;1.17;1.08;;;15.10;64.10;;;;;;4982476;27;3803952;-96
2021/05/17 08:24:06;;;;;;;1.42;1.13;;;15.10;64.10;;;;;;5081349;28;20028;-96
2021/05/17 08:26:32;;;;;;;1.63;1.30;;;15.10;64.00;;;;;;5212766;23;20130;-95
2021/05/17 08:28:58;;;;;;;1.10;1.00;;;15.20;64.10;;;;;;5037727;28;20493;-96
2021/05/17 08:31:25;;;;;;;0.80;0.80;;;15.20;64.10;;;;;;5067121;28;20107;-93
2021/05/17 08:33:51;;;;;;;1.40;1.10;;;15.20;64.70;;;;;;5072398;28;20043;-93
2021/05/17 08:36:17;;;;;;;1.30;1.02;;;15.20;64.00;;;;;;5091075;28;20016;-93
2021/05/17 08:38:43;;;;;;;1.27;1.17;;;15.20;64.00;;;;;;5059236;28;20024;-94
2021/05/17 08:41:12;;;;;;;1.27;1.20;;;15.30;64.00;;;;;;5056205;28;20476;-93
2021/05/17 08:43:40;;;;;;;2.10;1.20;;;15.30;64.00;;;;;;5072557;28;20044;-95
2021/05/17 08:46:11;;;;;;;1.38;1.27;;;15.30;64.00;;;;;;5055612;28;20032;-96
2021/05/17 08:48:47;;;;;;;1.45;1.20;;;15.30;64.00;;;;;;5064727;28;20111;-95
2021/05/17 08:51:22;;;;;;;1.10;1.00;;;15.40;64.00;;;;;;5072384;28;20032;-85
2021/05/17 08:53:49;;;;;;;1.80;1.17;;;15.40;64.00;;;;;;5055633;28;20028;-89
2021/05/17 08:56:16;;;;;;;1.65;1.10;;;15.40;63.90;;;;;;5089567;28;20074;-90
2021/05/17 08:58:42;;;;;;;1.27;1.10;;;15.40;64.60;;;;;;5055060;28;20024;-89
2021/05/17 09:01:11;;;;;;;1.45;1.20;;;15.50;64.00;;;;;;5054526;28;20020;-89
2021/05/17 09:03:37;;;;;;;1.38;1.10;;;15.50;63.90;;;;;;5055566;28;20029;-88
2021/05/17 09:06:08;;;;;;;1.10;1.00;;;15.50;63.90;;;;;;5058136;28;20048;-86
2021/05/17 09:08:44;;;;;;;1.10;1.00;;;15.60;64.00;;;;;;5071753;28;20032;-87
2021/05/17 09:11:11;;;;;;;0.98;0.98;;;15.60;64.00;;;;;;5039376;28;20036;-88
2021/05/17 09:13:36;;;;;;;1.83;1.00;;;15.60;63.90;;;;;;5038822;28;20058;-87
2021/05/17 09:16:03;;;;;;;3.00;1.50;;;15.60;63.90;;;;;;5022464;28;20051;-87
2021/05/17 09:18:32;;;;;;;1.90;1.10;;;15.70;63.90;;;;;;5089743;28;20028;-85
2021/05/17 09:21:05;;;;;;;1.00;1.00;;;15.70;63.90;;;;;;5071839;28;20039;-85
2021/05/17 09:23:34;;;;;;;1.85;1.17;;;15.70;63.90;;;;;;5055036;28;20083;-85
2021/05/17 09:26:14;;;;;;;1.50;1.13;;;15.80;63.90;;;;;;5071179;28;20020;-85
2021/05/17 09:28:46;;;;;;;1.20;1.10;;;15.80;63.90;;;;;;5066991;28;20124;-86
2021/05/17 09:31:13;;;;;;;0.98;0.98;;;15.90;63.80;;;;;;5043166;28;20073;-85
2021/05/17 09:33:51;;;;;;;1.30;1.20;;;15.90;63.80;;;;;;5044201;28;20103;-85
2021/05/17 09:36:27;;;;;;;1.17;1.00;;;16.00;63.90;;;;;;5075391;28;20089;-84
2021/05/17 09:38:58;;;;;;;1.10;1.00;;;16.10;63.80;;;;;;5057836;28;20035;-84
2021/05/17 09:41:35;;;;;;;1.20;1.10;;;16.10;63.70;;;;;;5064997;28;20052;-84
2021/05/17 09:44:02;;;;;;;1.42;1.10;;;16.20;63.60;;;;;;5058094;28;20040;-84
2021/05/17 09:46:28;;;;;;;1.20;1.10;;;16.20;63.50;;;;;;5037950;28;20029;-85
2021/05/17 09:48:55;;;;;;;1.20;1.10;;;16.30;63.50;;;;;;5054511;28;20033;-85
2021/05/17 09:51:21;;;;;;;1.45;1.10;;;16.30;63.40;;;;;;5041479;28;20036;-85
2021/05/17 09:53:48;;;;;;;1.75;1.13;;;16.40;63.40;;;;;;5043264;28;20040;-86
2021/05/17 09:56:19;;;;;;;1.20;1.00;;;16.40;63.40;;;;;;5074587;28;20039;-86
2021/05/17 09:58:47;;;;;;;1.33;1.00;;;16.50;63.40;;;;;;5040714;28;20028;-84
2021/05/17 10:01:16;;;;;;;1.00;1.00;;;16.50;63.40;;;;;;5027579;28;20050;-85
2021/05/17 10:03:46;;;;;;;1.38;1.08;;;16.60;63.40;;;;;;5044878;28;20397;-85
2021/05/17 10:06:17;;;;;;;1.40;1.10;;;16.60;63.30;;;;;;5056680;28;20016;-85
2021/05/17 10:08:43;;;;;;;1.15;1.08;;;16.60;63.20;;;;;;5053462;28;20029;-85
2021/05/17 10:11:09;;;;;;;1.15;1.05;;;16.70;63.10;;;;;;5040799;28;20058;-84
2021/05/17 10:13:35;;;;;;;1.83;1.20;;;16.80;63.10;;;;;;5056794;28;20028;-84
2021/05/17 10:16:02;;;;;;;1.30;1.20;;;16.80;63.10;;;;;;5038896;28;20480;-84
2021/05/17 10:18:32;;;;;;;1.83;1.10;;;16.90;63.10;;;;;;5037980;28;20029;-81
2021/05/17 10:20:59;;;;;;;1.85;1.35;;;16.90;63.00;;;;;;5039112;28;20040;-81
2021/05/17 10:23:26;;;;;;;1.50;1.13;;;16.90;62.90;;;;;;5042751;28;20033;-82
2021/05/17 10:26:04;;;;;;;1.20;1.10;;;17.00;62.90;;;;;;5039015;28;20031;-85
2021/05/17 10:28:31;;;;;;;1.20;1.10;;;17.00;62.80;;;;;;5071541;28;20063;-87
2021/05/17 10:31:11;;;;;;;1.63;1.17;;;17.00;62.80;;;;;;5058151;28;20468;-86
2021/05/17 10:33:37;;;;;;;1.15;1.00;;;17.10;62.80;;;;;;5045733;28;20017;-84
2021/05/17 10:36:05;;;;;;;1.55;1.00;;;17.10;62.70;;;;;;5040537;28;20060;-85
2021/05/17 10:46:51;;;;;;;1.30;1.20;;;17.30;62.60;;;;;;5058284;28;20101;-84
2021/05/17 10:49:23;;;;;;;0.93;0.90;;;17.30;62.50;;;;;;5035749;28;20786;-82
2021/05/17 10:52:16;;;;;;;1.35;1.10;;;17.30;62.60;;;;;;5039490;28;20035;-83
2021/05/17 10:54:46;;;;;;;0.90;0.90;;;17.30;62.60;;;;;;5073920;28;20111;-87
2021/05/17 10:57:27;;;;;;;1.45;1.15;;;17.40;62.60;;;;;;5039834;28;20111;-87
2021/05/17 11:02:43;;;;;;;1.45;1.08;;;17.40;62.70;;;;;;5042472;28;20037;-87
2021/05/17 11:05:19;;;;;;;1.13;1.02;;;17.40;62.60;;;;;;5047161;28;20025;-84
2021/05/17 11:07:52;;;;;;;1.25;1.13;;;17.40;62.80;;;;;;5049438;28;20028;-86
2021/05/17 11:10:26;;;;;;;0.98;0.98;;;17.40;62.70;;;;;;5056932;28;20033;-85
2021/05/17 11:12:52;;;;;;;1.88;1.20;;;17.40;62.80;;;;;;5033644;28;20454;-90
2021/05/17 11:15:20;;;;;;;1.50;1.20;;;17.50;62.70;;;;;;5036274;28;20108;-89
2021/05/17 11:18:07;;;;;;;1.75;1.05;;;17.50;62.70;;;;;;5052030;28;20479;-86
2021/05/17 11:20:46;;;;;;;1.10;1.00;;;17.50;62.80;;;;;;5043223;28;20033;-86
2021/05/17 11:23:25;;;;;;;1.35;1.02;;;17.50;62.70;;;;;;5054616;28;20028;-85
2021/05/17 11:26:13;;;;;;;1.83;1.33;;;17.50;62.70;;;;;;5038955;28;20106;-84
2021/05/17 11:28:39;;;;;;;1.15;1.05;;;17.60;62.70;;;;;;5039244;28;20097;-85
2021/05/17 11:31:18;;;;;;;1.58;1.30;;;17.60;62.60;;;;;;5073827;28;20465;-84
2021/05/17 11:33:54;;;;;;;1.10;1.02;;;17.60;62.70;;;;;;5036756;28;20013;-82
2021/05/17 11:36:26;;;;;;;0.90;0.90;;;17.60;62.70;;;;;;5045215;28;20107;-85
2021/05/17 11:39:07;;;;;;;1.23;1.13;;;17.70;62.70;;;;;;5039540;28;20469;-86
2021/05/17 11:41:59;;;;;;;1.85;1.45;;;17.70;62.80;;;;;;5061303;28;20097;-86
2021/05/17 11:44:28;;;;;;;1.65;1.00;;;17.70;62.70;;;;;;5044848;28;20024;-86
2021/05/17 11:46:56;;;;;;;1.30;1.10;;;17.70;62.60;;;;;;5055094;28;20111;-85
2021/05/17 11:49:24;;;;;;;1.67;1.10;;;17.70;62.60;;;;;;5049422;28;20021;-84
2021/05/17 11:51:53;;;;;;;0.93;0.93;;;17.80;62.70;;;;;;5038581;28;20052;-86
2021/05/17 11:54:20;;;;;;;1.05;1.02;;;17.80;62.70;;;;;;5053220;28;20036;-87
2021/05/17 11:56:49;;;;;;;1.33;1.10;;;17.80;62.60;;;;;;5040633;28;20111;-86
2021/05/17 11:59:20;;;;;;;1.77;1.10;;;17.90;62.60;;;;;;5040342;28;20025;-85
2021/05/17 12:02:05;;;;;;;1.00;1.00;;;17.90;62.60;;;;;;5066014;28;20040;-85
2021/05/17 12:04:35;;;;;;;1.20;1.10;;;18.00;62.70;;;;;;5033619;28;20025;-86
2021/05/17 12:07:02;;;;;;;1.05;0.90;;;18.00;63.20;;;;;;5034077;28;20029;-85
2021/05/17 12:09:44;;;;;;;0.90;0.90;;;18.00;62.50;;;;;;5025556;28;20021;-85
2021/05/17 12:12:14;;;;;;;1.23;1.13;;;18.10;62.60;;;;;;5055447;28;20025;-85
2021/05/17 12:15:05;;;;;;;1.75;1.30;;;18.10;62.60;;;;;;5041246;28;20029;-85
2021/05/17 12:17:35;;;;;;;1.00;0.95;;;18.10;62.50;;;;;;5074342;28;20055;-85
2021/05/17 12:20:07;;;;;;;1.33;1.10;;;18.10;62.50;;;;;;5050352;28;20036;-85
2021/05/17 12:22:36;;;;;;;1.10;0.90;;;18.20;62.60;;;;;;5055384;28;20044;-86
2021/05/17 12:25:11;;;;;;;1.20;1.10;;;18.20;62.50;;;;;;5044414;28;20040;-88
2021/05/17 12:27:39;;;;;;;0.98;0.95;;;18.20;62.60;;;;;;5073611;28;20496;-86
2021/05/17 12:30:18;;;;;;;1.30;1.10;;;18.30;62.60;;;;;;5055305;28;20028;-87
2021/05/17 12:32:53;;;;;;;1.10;1.00;;;18.30;62.70;;;;;;5081137;28;20032;-87
2021/05/17 12:35:26;;;;;;;0.85;0.85;;;18.30;62.60;;;;;;5041895;28;20098;-88
2021/05/17 12:37:55;;;;;;;1.10;1.00;;;18.30;62.60;;;;;;5045568;28;20025;-85
2021/05/17 12:40:36;;;;;;;1.67;1.08;;;18.30;62.60;;;;;;5052393;28;20121;-88
2021/05/17 12:43:18;;;;;;;1.15;1.02;;;18.40;62.70;;;;;;5045540;28;20520;-86
2021/05/17 12:45:53;;;;;;;1.15;1.05;;;18.40;62.70;;;;;;5073240;28;20028;-90
2021/05/17 12:48:21;;;;;;;1.30;1.10;;;18.40;62.70;;;;;;5037458;28;20059;-84
2021/05/17 12:50:53;;;;;;;1.25;1.15;;;18.40;62.70;;;;;;5038351;28;20023;-86
2021/05/17 12:53:20;;;;;;;1.48;1.17;;;18.40;62.70;;;;;;5054552;28;20023;-89
2021/05/17 12:55:55;;;;;;;1.25;1.13;;;18.40;62.70;;;;;;5038359;28;20025;-87
2021/05/17 12:58:31;;;;;;;1.70;1.35;;;18.50;62.90;;;;;;5055000;28;20033;-86
2021/05/17 13:00:59;;;;;;;1.23;1.13;;;18.50;62.80;;;;;;5038091;28;20094;-85
2021/05/17 13:03:28;;;;;;;1.33;1.23;;;18.50;62.80;;;;;;5028126;28;20093;-84
2021/05/17 13:05:57;;;;;;;1.77;1.38;;;18.50;62.80;;;;;;5050903;28;20033;-85
2021/05/17 13:08:28;;;;;;;1.73;1.60;;;18.60;62.80;;;;;;5057928;28;20021;-83
2021/05/17 13:10:58;;;;;;;1.60;1.50;;;18.60;63.50;;;;;;5055870;28;20036;-85
2021/05/17 13:14:00;;;;;;;1.77;1.67;;;18.60;62.80;;;;;;5047388;28;20087;-84
2021/05/17 13:16:31;;;;;;;1.73;1.60;;;18.60;62.90;;;;;;5049308;28;20029;-84
2021/05/17 13:22:05;;;;;;;2.05;1.73;;;18.70;62.90;;;;;;5058250;28;20036;-82
2021/05/17 13:30:31;;;;;;;2.20;1.73;;;18.80;62.80;;;;;;5057501;28;20028;-85
2021/05/17 13:32:57;;;;;;;2.00;1.70;;;18.80;62.60;;;;;;5042737;28;20029;-85
2021/05/17 13:35:24;;;;;;;1.83;1.73;;;18.80;62.70;;;;;;5024474;28;20025;-86
2021/05/17 13:37:50;;;;;;;2.53;1.60;;;18.80;62.60;;;;;;5058103;28;20033;-84